Time;durP1;ratioP1;P1;durP2;ratioP2;P2;SDS_P1;SDS_P2;PMS_P1;PMS_P2;Temp;Humidity;BMP_temperature;BMP_pressure;BME280_temperature;BME280_humidity;BME280_pressure;Samples;Min_cycle;Max_cycle;Signal;HPM_P1;HPM_P2
2022/03/22 00:05:11;;;;;;;14.63;7.93;;;;;;;19.64;33.50;102892.47;16140819;19;129113;-47
2022/03/22 00:10:33;;;;;;;16.13;7.82;;;;;;;19.62;33.89;102898.22;16143213;19;129474;-44
2022/03/22 00:15:56;;;;;;;14.75;7.40;;;;;;;19.58;33.86;102902.47;16145897;19;129580;-49
2022/03/22 00:21:38;;;;;;;15.32;7.70;;;;;;;19.56;33.45;102899.06;16140057;19;129816;-46
2022/03/22 00:26:59;;;;;;;13.32;7.22;;;;;;;19.52;33.34;102903.31;16140426;19;129541;-45
2022/03/22 00:32:21;;;;;;;13.15;7.80;;;;;;;19.50;33.60;102897.97;16144454;19;129663;-46
2022/03/22 00:37:43;;;;;;;12.77;7.65;;;;;;;19.47;33.73;102905.81;16141774;19;130269;-46
2022/03/22 00:43:05;;;;;;;14.32;7.60;;;;;;;19.47;33.29;102911.38;16141928;19;129829;-47
2022/03/22 00:48:26;;;;;;;13.85;7.25;;;;;;;19.43;33.73;102915.63;16138080;19;129829;-48
2022/03/22 00:53:48;;;;;;;12.63;6.90;;;;;;;19.42;33.70;102908.38;16140140;19;131334;-44
2022/03/22 01:04:50;;;;;;;16.77;7.38;;;;;;;19.39;33.61;102915.16;16140588;19;129766;-49
2022/03/22 01:10:13;;;;;;;11.10;6.93;;;;;;;19.37;33.29;102909.81;16138352;19;129950;-45
2022/03/22 01:15:37;;;;;;;13.93;7.43;;;;;;;19.35;33.33;102909.16;16134494;19;129366;-45
2022/03/22 01:20:58;;;;;;;13.73;7.63;;;;;;;19.33;33.21;102916.81;16134985;19;130439;-45
2022/03/22 01:26:20;;;;;;;10.82;7.13;;;;;;;19.31;33.21;102907.88;16136202;19;129276;-44
2022/03/22 01:31:42;;;;;;;11.30;7.43;;;;;;;19.30;33.16;102920.03;16141309;19;130541;-46
2022/03/22 01:37:05;;;;;;;12.30;7.13;;;;;;;19.28;33.53;102919.38;16139781;19;129486;-47
2022/03/22 01:42:26;;;;;;;11.57;7.32;;;;;;;19.26;33.45;102927.03;16140991;19;128991;-46
2022/03/22 01:47:49;;;;;;;13.65;7.60;;;;;;;19.23;33.34;102921.88;16130823;19;129472;-48
2022/03/22 01:53:11;;;;;;;13.82;6.90;;;;;;;19.22;33.16;102914.63;16133137;19;129715;-46
2022/03/22 01:58:33;;;;;;;12.60;7.22;;;;;;;19.21;33.58;102912.91;16134864;19;129670;-44
2022/03/22 02:09:35;;;;;;;11.02;6.82;;;;;;;19.17;33.36;102911.56;16138477;19;129013;-47
2022/03/22 02:14:57;;;;;;;10.20;6.93;;;;;;;19.14;33.23;102910.03;16137062;19;129247;-44
2022/03/22 02:20:19;;;;;;;11.80;7.57;;;;;;;19.14;33.11;102907.25;16133314;19;129647;-45
2022/03/22 02:25:41;;;;;;;10.55;6.85;;;;;;;19.13;32.99;102910.25;16134308;19;129276;-44
2022/03/22 02:31:02;;;;;;;9.70;6.55;;;;;;;19.11;33.16;102907.69;16137517;19;129517;-45
2022/03/22 02:36:25;;;;;;;11.32;6.57;;;;;;;19.10;33.52;102907.88;16136833;19;129295;-45
2022/03/22 02:41:50;;;;;;;11.35;6.68;;;;;;;19.08;33.03;102908.94;16134954;19;129966;-44
2022/03/22 02:47:12;;;;;;;11.02;7.05;;;;;;;19.07;33.13;102912.78;16132029;19;129239;-45
2022/03/22 02:52:34;;;;;;;8.15;6.30;;;;;;;19.05;32.95;102906.56;16136962;19;129799;-47
2022/03/22 02:57:55;;;;;;;9.68;6.47;;;;;;;19.04;32.88;102909.53;16135983;19;129958;-45
2022/03/22 03:03:22;;;;;;;8.38;6.78;;;;;;;19.02;32.94;102908.88;16136008;19;129008;-47
2022/03/22 03:08:44;;;;;;;10.85;6.78;;;;;;;19.01;32.87;102913.56;16144551;19;129669;-47
2022/03/22 03:19:46;;;;;;;10.30;6.60;;;;;;;18.98;33.03;102919.50;16147628;19;130485;-47
2022/03/22 03:25:08;;;;;;;9.63;7.07;;;;;;;18.98;32.82;102927.00;16148170;19;130426;-45
2022/03/22 03:30:30;;;;;;;10.60;7.07;;;;;;;18.95;32.91;102925.47;16150983;19;129379;-44
2022/03/22 03:35:52;;;;;;;8.95;6.35;;;;;;;18.95;32.89;102928.25;16145813;19;129364;-49
2022/03/22 03:47:10;;;;;;;11.65;6.60;;;;;;;18.91;32.72;102932.47;16142058;19;129994;-44
2022/03/22 03:52:37;;;;;;;10.93;7.32;;;;;;;18.90;33.05;102933.53;16144832;19;130389;-47
2022/03/22 03:57:58;;;;;;;9.65;6.90;;;;;;;18.88;32.71;102932.88;16142778;19;129684;-48
2022/03/22 04:03:20;;;;;;;10.43;6.22;;;;;;;18.87;33.21;102933.94;16140102;19;129850;-45
2022/03/22 04:08:42;;;;;;;9.05;6.65;;;;;;;18.86;33.17;102929.44;16142420;19;129617;-45
2022/03/22 04:14:04;;;;;;;8.50;5.90;;;;;;;18.84;32.75;102935.19;16145851;19;129965;-47
2022/03/22 04:19:26;;;;;;;9.25;6.00;;;;;;;18.83;32.72;102939.00;16143242;19;130131;-48
2022/03/22 04:24:48;;;;;;;9.82;6.70;;;;;;;18.82;32.96;102948.38;16145161;19;130714;-46
2022/03/22 04:35:51;;;;;;;7.60;5.78;;;;;;;18.80;33.02;102949.66;16144298;19;129616;-47
2022/03/22 04:41:13;;;;;;;7.35;5.63;;;;;;;18.77;32.97;102946.22;16143177;19;128902;-48
2022/03/22 04:46:36;;;;;;;8.77;6.00;;;;;;;18.76;33.08;102947.28;16138190;19;130909;-44
2022/03/22 04:57:37;;;;;;;8.10;5.78;;;;;;;18.91;33.07;102946.34;16142999;19;129125;-45
2022/03/22 05:03:00;;;;;;;7.43;5.55;;;;;;;19.32;32.32;102936.47;16144300;19;129124;-45
2022/03/22 05:08:22;;;;;;;7.60;5.10;;;;;;;19.92;32.13;102947.97;16139535;19;129884;-46
2022/03/22 05:13:43;;;;;;;7.28;5.28;;;;;;;20.41;31.44;102942.41;16142500;19;130302;-49
2022/03/22 05:19:05;;;;;;;12.07;4.97;;;;;;;20.66;31.03;102955.72;16141202;19;128885;-45
2022/03/22 05:24:27;;;;;;;7.85;4.90;;;;;;;20.74;30.98;102961.09;16141441;19;128906;-48
2022/03/22 05:29:50;;;;;;;8.82;5.20;;;;;;;20.73;30.89;102960.25;16133489;19;129285;-49
2022/03/22 05:35:11;;;;;;;5.85;4.65;;;;;;;20.67;30.71;102965.78;16141420;19;129383;-47
2022/03/22 05:40:33;;;;;;;6.70;4.95;;;;;;;20.57;31.00;102967.03;16141752;19;129918;-47
2022/03/22 05:45:55;;;;;;;5.65;4.88;;;;;;;20.47;30.93;102972.13;16137889;19;130388;-51
2022/03/22 05:51:17;;;;;;;6.00;4.93;;;;;;;20.35;30.98;102973.81;16140499;19;129997;-45
2022/03/22 05:56:39;;;;;;;6.85;5.07;;;;;;;20.22;31.36;102969.91;16140114;19;129244;-47
2022/03/22 06:02:01;;;;;;;6.70;4.88;;;;;;;20.11;31.27;102968.59;16138930;19;129604;-46
2022/03/22 06:07:24;;;;;;;5.88;5.25;;;;;;;20.01;31.61;102968.09;16136397;19;130422;-46
2022/03/22 06:12:48;;;;;;;11.60;5.35;;;;;;;19.92;31.58;102981.28;16134236;19;129118;-47
2022/03/22 06:18:11;;;;;;;8.13;4.78;;;;;;;19.84;31.61;102990.66;16135892;19;129563;-48
2022/03/22 06:23:33;;;;;;;11.52;5.22;;;;;;;19.81;31.62;103001.31;16135469;19;129490;-44
2022/03/22 06:28:55;;;;;;;12.23;5.38;;;;;;;19.75;31.76;103004.91;16133815;19;129645;-45
2022/03/22 06:34:17;;;;;;;8.98;5.38;;;;;;;19.72;31.86;103008.06;16137531;19;130519;-45
2022/03/22 06:39:39;;;;;;;10.63;5.60;;;;;;;19.64;31.71;103007.19;16136771;19;129599;-46
2022/03/22 06:45:03;;;;;;;9.18;4.88;;;;;;;19.62;31.61;103009.28;16133643;19;128889;-45
2022/03/22 06:50:25;;;;;;;7.35;5.03;;;;;;;19.60;31.69;103016.13;16133595;19;130386;-46
2022/03/22 06:55:47;;;;;;;7.53;5.10;;;;;;;19.60;32.04;103030.84;16136669;19;129260;-47
2022/03/22 07:01:10;;;;;;;7.72;5.22;;;;;;;19.58;31.51;103032.97;16137469;19;130388;-46
2022/03/22 07:06:37;;;;;;;6.50;4.70;;;;;;;19.58;31.77;103035.72;16131484;19;129724;-46
2022/03/22 07:12:00;;;;;;;8.82;4.85;;;;;;;19.60;31.71;103039.16;16129787;19;130418;-45
2022/03/22 07:17:21;;;;;;;9.60;5.20;;;;;;;19.60;31.87;103038.34;16129788;19;129503;-48
2022/03/22 07:22:43;;;;;;;5.93;4.72;;;;;;;19.63;31.77;103041.56;16133674;19;129333;-46
2022/03/22 07:28:05;;;;;;;10.20;5.30;;;;;;;19.63;31.84;103037.94;16130703;19;129241;-46
2022/03/22 07:33:27;;;;;;;8.85;4.82;;;;;;;19.63;31.95;103033.22;16132547;19;131261;-44
2022/03/22 07:38:49;;;;;;;5.93;5.00;;;;;;;19.63;31.96;103044.31;16130824;19;130113;-43
2022/03/22 07:44:12;;;;;;;12.32;5.10;;;;;;;19.65;31.75;103046.91;16127780;19;128922;-47
2022/03/22 07:55:15;;;;;;;11.52;5.32;;;;;;;19.83;31.55;103038.06;16148657;19;130205;-45
2022/03/22 08:00:39;;;;;;;13.50;6.07;;;;;;;19.98;31.42;103038.81;16147332;19;129173;-46
2022/03/22 08:06:01;;;;;;;15.75;6.18;;;;;;;20.31;31.61;103044.81;16146090;19;128966;-47
2022/03/22 08:11:24;;;;;;;16.08;5.53;;;;;;;22.07;29.19;103037.31;16148124;19;129422;-44
2022/03/22 08:16:46;;;;;;;11.15;5.07;;;;;;;24.49;26.38;103035.56;16148622;19;129843;-47
2022/03/22 08:22:08;;;;;;;11.02;5.93;;;;;;;25.24;25.53;103036.19;16142629;19;130820;-45
2022/03/22 08:27:30;;;;;;;11.85;5.80;;;;;;;23.74;26.71;103040.22;16144849;19;129460;-46
2022/03/22 08:32:54;;;;;;;11.10;5.72;;;;;;;22.92;27.67;103048.59;16146519;19;129313;-46
2022/03/22 08:38:19;;;;;;;12.25;5.30;;;;;;;22.32;28.21;103039.41;16145752;19;129394;-45
2022/03/22 08:43:41;;;;;;;7.70;5.67;;;;;;;21.90;29.31;103034.16;16145114;19;130051;-45
2022/03/22 08:49:04;;;;;;;10.50;5.85;;;;;;;21.61;29.56;103038.28;16143158;19;128913;-47
2022/03/22 08:54:27;;;;;;;7.80;5.22;;;;;;;21.40;29.66;103037.41;16144561;19;128941;-44
2022/03/22 08:59:49;;;;;;;7.45;5.35;;;;;;;21.23;29.89;103036.97;16143865;19;134149;-44
2022/03/22 09:10:52;;;;;;;14.57;5.75;;;;;;;20.99;30.38;103038.41;16137490;19;129286;-46
2022/03/22 09:16:14;;;;;;;6.95;5.40;;;;;;;20.89;30.84;103034.13;16142742;19;129313;-44
2022/03/22 09:21:36;;;;;;;11.95;5.40;;;;;;;20.83;30.91;103029.38;16139601;19;130157;-44
2022/03/22 09:26:58;;;;;;;6.75;5.10;;;;;;;20.77;31.13;103027.47;16139845;19;129709;-46
2022/03/22 09:32:20;;;;;;;7.25;5.30;;;;;;;20.72;31.32;103032.75;16142621;19;129846;-46
2022/03/22 09:37:43;;;;;;;6.88;4.93;;;;;;;20.67;31.66;103032.53;16142405;19;129255;-48
2022/03/22 09:43:08;;;;;;;9.50;5.38;;;;;;;20.62;31.51;103035.06;16143084;19;130672;-46
2022/03/22 09:48:31;;;;;;;8.77;5.03;;;;;;;20.58;31.56;103034.63;16139437;19;129448;-45
2022/03/22 09:53:53;;;;;;;11.70;5.50;;;;;;;20.52;31.46;103028.00;16145381;19;130202;-45
2022/03/22 09:59:17;;;;;;;8.98;5.50;;;;;;;20.47;31.60;103027.75;16144558;19;130123;-44
2022/03/22 10:04:41;;;;;;;7.72;5.22;;;;;;;20.44;31.85;103025.38;16139433;19;131527;-45
2022/03/22 10:10:06;;;;;;;8.48;5.95;;;;;;;20.38;32.01;103018.72;16177792;19;129195;-45
2022/03/22 10:15:34;;;;;;;10.35;6.45;;;;;;;20.36;31.48;103028.34;16206515;19;129005;-43
2022/03/22 10:21:03;;;;;;;10.75;7.35;;;;;;;20.31;31.74;103017.00;16202676;19;129256;-46
2022/03/22 10:26:33;;;;;;;9.57;6.97;;;;;;;20.27;31.32;103009.06;16207817;19;128542;-46
2022/03/22 10:31:55;;;;;;;9.40;6.70;;;;;;;20.24;31.41;103014.19;16207106;19;128649;-48
2022/03/22 10:37:25;;;;;;;15.00;8.18;;;;;;;20.22;31.42;103021.88;16203942;19;130716;-48
2022/03/22 10:42:52;;;;;;;10.75;7.95;;;;;;;20.20;31.57;103018.44;16204159;19;128742;-47
2022/03/22 10:48:26;;;;;;;13.95;8.20;;;;;;;20.17;31.66;103005.81;16198820;19;130394;-44
2022/03/22 10:53:48;;;;;;;10.68;8.38;;;;;;;20.14;31.13;103006.22;16195690;19;131544;-45
2022/03/22 10:59:12;;;;;;;14.45;9.23;;;;;;;20.11;30.88;103006.63;16184548;19;131032;-49
2022/03/22 11:04:37;;;;;;;11.60;8.25;;;;;;;20.06;31.19;103003.63;16189560;19;128957;-43
2022/03/22 11:09:59;;;;;;;12.52;7.85;;;;;;;20.04;31.10;103002.97;16173202;19;129371;-46
2022/03/22 11:15:31;;;;;;;9.68;7.65;;;;;;;19.99;31.31;102998.88;16134662;19;129725;-45
2022/03/22 11:20:55;;;;;;;;;;;;;;;19.94;31.17;102987.47;16131595;19;129063;-46
2022/03/22 11:26:20;;;;;;;9.68;6.85;;;;;;;19.95;31.67;102983.63;16137400;19;129645;-47
2022/03/22 11:34:08;;;;;;;10.43;7.13;;;;;;;19.90;31.27;102979.75;16140976;19;130797;-46
2022/03/22 11:37:29;;;;;;;8.95;6.75;;;;;;;19.87;31.47;102981.03;16149853;19;129007;-48
2022/03/22 11:42:53;;;;;;;8.45;6.50;;;;;;;19.84;31.38;102978.66;16147783;19;129468;-44
2022/03/22 11:48:16;;;;;;;8.95;6.32;;;;;;;19.81;31.41;102974.38;16146605;19;129499;-45
2022/03/22 11:53:45;;;;;;;12.02;6.80;;;;;;;19.80;31.42;102974.59;16145828;19;129466;-46
2022/03/22 11:59:13;;;;;;;8.10;6.50;;;;;;;19.78;31.79;102968.38;16148261;19;131190;-45
2022/03/22 12:04:41;;;;;;;8.93;6.75;;;;;;;19.78;31.49;102962.84;16146256;19;130193;-44
2022/03/22 12:10:15;;;;;;;10.77;6.43;;;;;;;19.75;31.70;102953.00;16143454;19;129602;-46
2022/03/22 12:15:36;;;;;;;9.25;6.10;;;;;;;19.73;31.44;102951.47;16146528;19;130540;-44
2022/03/22 12:20:59;;;;;;;7.68;6.18;;;;;;;19.71;31.60;102950.81;16143870;19;129547;-48
2022/03/22 12:26:25;;;;;;;10.23;5.75;;;;;;;19.69;31.48;102934.38;16146587;19;129464;-45
2022/03/22 12:31:51;;;;;;;8.80;5.93;;;;;;;19.68;31.61;102936.28;16140985;19;129217;-46
2022/03/22 12:37:16;;;;;;;9.02;5.40;;;;;;;19.66;31.63;102923.66;16145131;19;128948;-49
2022/03/22 12:42:38;;;;;;;10.13;6.43;;;;;;;19.65;31.79;102920.03;16145791;19;129418;-44
2022/03/22 12:48:01;;;;;;;6.78;5.43;;;;;;;19.64;31.97;102918.31;16141690;19;129494;-44
2022/03/22 12:53:23;;;;;;;7.05;5.60;;;;;;;19.63;31.99;102911.06;16143912;19;129734;-49
2022/03/22 12:58:45;;;;;;;6.88;5.60;;;;;;;19.62;31.76;102906.56;16143797;19;129545;-49
2022/03/22 13:04:06;;;;;;;7.45;5.82;;;;;;;19.61;31.90;102902.06;16142510;19;129662;-49
2022/03/22 13:15:17;;;;;;;7.88;5.90;;;;;;;19.59;31.84;102887.53;16141207;19;129322;-44
2022/03/22 13:20:40;;;;;;;9.05;6.38;;;;;;;19.58;32.04;102873.84;16140252;19;131182;-45
2022/03/22 13:26:15;;;;;;;6.47;5.17;;;;;;;19.56;31.52;102868.53;16130218;19;131532;-44
2022/03/22 13:31:36;;;;;;;7.45;5.53;;;;;;;19.55;31.53;102865.94;16136245;19;130118;-48
2022/03/22 13:37:05;;;;;;;9.50;6.15;;;;;;;19.55;31.55;102857.59;16135144;19;131545;-44
2022/03/22 13:42:27;;;;;;;7.30;5.30;;;;;;;19.52;31.58;102856.94;16137109;19;129568;-46
2022/03/22 13:47:51;;;;;;;7.25;5.35;;;;;;;19.53;31.87;102853.13;16135434;19;130949;-48
2022/03/22 13:53:15;;;;;;;6.65;5.22;;;;;;;19.53;31.81;102846.72;16142761;19;130243;-46
2022/03/22 13:58:45;;;;;;;6.53;5.50;;;;;;;19.51;31.83;102846.06;16142068;19;129234;-46
2022/03/22 14:04:06;;;;;;;7.88;5.70;;;;;;;19.52;31.87;102848.63;16141428;19;129523;-47
2022/03/22 14:09:29;;;;;;;7.75;5.35;;;;;;;19.49;31.81;102842.63;16136766;19;129229;-46
2022/03/22 14:14:51;;;;;;;7.05;5.30;;;;;;;19.48;31.59;102836.22;16133542;19;129553;-50
2022/03/22 14:20:17;;;;;;;10.40;5.72;;;;;;;19.48;31.92;102835.34;16135657;19;129073;-47
2022/03/22 14:25:39;;;;;;;7.18;4.88;;;;;;;19.47;31.69;102830.88;16137512;19;129020;-45
2022/03/22 14:31:01;;;;;;;8.07;5.07;;;;;;;19.47;31.81;102828.09;16134774;19;129496;-44
2022/03/22 14:36:23;;;;;;;6.30;5.00;;;;;;;19.47;31.85;102828.97;16136491;19;129139;-47
2022/03/22 14:41:45;;;;;;;7.00;5.03;;;;;;;19.47;31.50;102817.00;16134726;19;129089;-47
2022/03/22 14:47:07;;;;;;;5.32;4.72;;;;;;;19.48;31.57;102827.03;16131660;19;129509;-44
2022/03/22 15:03:51;;;;;;;7.05;4.93;;;;;;;19.44;31.33;102818.25;16149721;19;129510;-45
2022/03/22 15:09:16;;;;;;;7.72;4.80;;;;;;;19.43;31.57;102822.09;16148890;19;132003;-47
2022/03/22 15:14:43;;;;;;;7.70;4.63;;;;;;;19.43;31.46;102812.94;16150575;19;129668;-45
2022/03/22 15:20:06;;;;;;;7.15;5.10;;;;;;;19.44;31.16;102803.53;16149819;19;129291;-47
2022/03/22 15:25:27;;;;;;;6.95;5.07;;;;;;;19.41;31.60;102802.00;16150137;19;129060;-45
2022/03/22 15:30:50;;;;;;;6.65;4.60;;;;;;;19.41;31.59;102793.69;16145777;19;129480;-47
2022/03/22 15:36:12;;;;;;;6.15;4.95;;;;;;;19.41;31.14;102792.84;16144237;19;130597;-52
2022/03/22 15:41:35;;;;;;;6.57;4.40;;;;;;;19.40;30.95;102788.34;16146007;19;129387;-57
2022/03/22 15:46:57;;;;;;;6.80;4.70;;;;;;;19.39;31.08;102781.94;16142331;19;129827;-53
2022/03/22 15:52:18;;;;;;;6.07;4.30;;;;;;;19.37;31.11;102773.81;16140239;19;129504;-48
2022/03/22 15:57:40;;;;;;;7.28;4.88;;;;;;;19.36;31.03;102782.38;16146299;19;130378;-50
2022/03/22 16:03:02;;;;;;;10.05;4.75;;;;;;;19.36;31.24;102783.22;16147519;19;129620;-50
2022/03/22 16:08:24;;;;;;;7.95;4.68;;;;;;;19.34;30.48;102776.16;16142723;19;130316;-53
2022/03/22 16:13:47;;;;;;;8.82;5.22;;;;;;;19.34;30.35;102771.44;16142641;19;130200;-62
2022/03/22 16:19:10;;;;;;;11.55;5.20;;;;;;;19.34;30.17;102768.69;16140427;19;129746;-58
2022/03/22 16:24:32;;;;;;;8.13;5.05;;;;;;;19.37;30.38;102779.38;16139814;19;129349;-57
2022/03/22 16:29:54;;;;;;;13.05;6.20;;;;;;;19.36;30.08;102776.81;16142211;19;129795;-56
2022/03/22 16:40:58;;;;;;;12.20;5.25;;;;;;;19.33;29.43;102786.38;16142584;19;129146;-50
2022/03/22 16:46:21;;;;;;;10.10;5.18;;;;;;;19.34;29.70;102788.09;16137906;19;130084;-49
2022/03/22 16:51:43;;;;;;;12.63;5.15;;;;;;;19.35;29.82;102784.28;16139396;19;129550;-55
2022/03/22 16:57:05;;;;;;;21.17;5.07;;;;;;;19.37;29.99;102792.41;16143193;19;129583;-48
2022/03/22 17:02:27;;;;;;;13.32;5.22;;;;;;;19.36;30.19;102794.31;16139637;19;129482;-54
2022/03/22 17:07:49;;;;;;;12.82;4.82;;;;;;;19.34;29.94;102793.66;16136965;19;130286;-54
2022/03/22 17:13:12;;;;;;;12.10;4.90;;;;;;;19.34;30.40;102796.44;16133836;19;129901;-59
2022/03/22 17:18:40;;;;;;;13.25;4.90;;;;;;;19.33;30.36;102803.03;16136301;19;129467;-54
2022/03/22 17:24:05;;;;;;;14.18;5.25;;;;;;;19.43;30.16;102799.06;16127094;19;130258;-58
2022/03/22 17:29:27;;;;;;;13.07;4.13;;;;;;;19.62;29.87;102798.28;16132080;19;129636;-60
2022/03/22 17:34:50;;;;;;;12.05;4.63;;;;;;;19.83;29.56;102807.53;16136183;19;130181;-52
2022/03/22 17:40:12;;;;;;;10.30;4.55;;;;;;;20.04;29.32;102801.00;16139634;19;129551;-54
2022/03/22 17:45:34;;;;;;;7.18;3.75;;;;;;;20.23;29.43;102799.31;16136669;19;129286;-61
2022/03/22 17:50:56;;;;;;;9.27;4.35;;;;;;;20.38;29.19;102812.16;16134910;19;130170;-46
2022/03/22 17:56:19;;;;;;;12.50;4.35;;;;;;;20.41;29.09;102812.59;16136499;19;132890;-46
2022/03/22 18:01:41;;;;;;;9.48;4.32;;;;;;;20.41;28.71;102820.09;16137083;19;131433;-47
2022/03/22 18:07:04;;;;;;;13.57;4.20;;;;;;;20.35;28.70;102819.00;16133902;19;130244;-48
2022/03/22 18:12:27;;;;;;;12.18;4.13;;;;;;;20.29;28.83;102823.50;16130082;19;129115;-46
2022/03/22 18:17:49;;;;;;;9.98;3.88;;;;;;;20.20;29.21;102826.69;16136070;19;129522;-50
2022/03/22 18:23:11;;;;;;;10.02;3.47;;;;;;;20.12;29.25;102827.72;16128666;19;129659;-54
2022/03/22 18:28:33;;;;;;;25.77;5.57;;;;;;;20.07;29.64;102833.06;16129631;19;130061;-46
2022/03/22 18:33:55;;;;;;;14.95;4.40;;;;;;;20.10;30.18;102840.97;16133268;19;129747;-46
2022/03/22 18:39:18;;;;;;;17.15;4.38;;;;;;;20.19;30.23;102841.63;16135598;19;130041;-45
2022/03/22 18:44:40;;;;;;;13.55;5.30;;;;;;;20.35;29.78;102840.38;16130816;19;129102;-44
2022/03/22 18:50:05;;;;;;;23.53;5.27;;;;;;;20.59;30.11;102847.25;16127292;19;130011;-47
2022/03/22 18:55:28;;;;;;;16.40;4.38;;;;;;;20.87;29.99;102849.84;16131688;19;129471;-46
2022/03/22 19:00:50;;;;;;;16.45;4.97;;;;;;;21.15;29.53;102856.25;16135690;19;129332;-46
2022/03/22 19:06:15;;;;;;;22.75;5.18;;;;;;;21.42;29.46;102857.03;16130722;19;129360;-46
2022/03/22 19:11:37;;;;;;;;;;;;;;;21.63;29.29;102861.50;16129381;19;130153;-47
2022/03/22 19:22:40;;;;;;;20.92;5.85;;;;;;;21.95;29.41;102872.75;16124889;19;129284;-47
2022/03/22 19:28:04;;;;;;;23.20;5.45;;;;;;;21.98;29.75;102874.22;16135172;19;132437;-47
2022/03/22 19:33:27;;;;;;;19.90;5.80;;;;;;;21.95;29.65;102869.06;16124068;19;129730;-49
2022/03/22 19:38:49;;;;;;;25.58;6.00;;;;;;;21.86;29.60;102867.63;16130497;19;129451;-50
2022/03/22 19:44:11;;;;;;;21.10;6.00;;;;;;;21.77;30.13;102876.25;16129838;19;129916;-46
2022/03/22 19:49:54;;;;;;;29.17;6.00;;;;;;;21.67;30.11;102875.84;16138810;19;130346;-48
2022/03/22 19:55:16;;;;;;;27.38;5.60;;;;;;;21.60;30.55;102877.78;16144946;19;129719;-48
2022/03/22 20:00:39;;;;;;;24.13;5.55;;;;;;;21.55;30.34;102872.88;16143965;19;129665;-47
2022/03/22 20:06:01;;;;;;;21.13;5.90;;;;;;;21.55;30.34;102869.22;16143849;19;130591;-45
2022/03/22 20:11:23;;;;;;;17.85;5.47;;;;;;;21.65;30.71;102875.22;16135179;19;130047;-47
2022/03/22 20:16:45;;;;;;;14.23;5.78;;;;;;;21.75;30.05;102881.19;16140091;19;130464;-46
2022/03/22 20:22:11;;;;;;;21.20;5.63;;;;;;;21.87;30.24;102880.50;16139324;19;130785;-49
2022/03/22 20:27:34;;;;;;;18.83;5.65;;;;;;;21.92;29.93;102877.88;16140984;19;129358;-47
2022/03/22 20:32:56;;;;;;;19.50;6.63;;;;;;;21.91;29.83;102878.97;16132168;19;129815;-49
2022/03/22 20:38:18;;;;;;;16.70;5.15;;;;;;;21.88;29.93;102877.47;16139107;19;130151;-50
2022/03/22 20:43:40;;;;;;;17.05;5.45;;;;;;;21.88;29.73;102876.63;16137969;19;129471;-48
2022/03/22 20:49:02;;;;;;;13.30;5.05;;;;;;;21.87;29.84;102875.75;16144510;19;129108;-52
2022/03/22 20:54:24;;;;;;;13.45;5.72;;;;;;;21.85;29.59;102877.06;16140890;19;129854;-49
2022/03/22 20:59:46;;;;;;;13.18;5.25;;;;;;;21.81;29.92;102877.50;16137534;19;129082;-52
2022/03/22 21:05:08;;;;;;;12.02;5.25;;;;;;;21.78;30.13;102886.31;16137457;19;129621;-50
2022/03/22 21:10:30;;;;;;;9.52;4.82;;;;;;;21.76;29.94;102885.69;16139409;19;130645;-46
2022/03/22 21:15:51;;;;;;;13.60;5.10;;;;;;;21.71;29.86;102885.47;16139585;19;129278;-46
2022/03/22 21:21:14;;;;;;;13.63;5.40;;;;;;;21.64;29.97;102888.28;16137122;19;129115;-45
2022/03/22 21:26:36;;;;;;;10.68;5.03;;;;;;;21.53;29.93;102888.97;16137201;19;129791;-46
2022/03/22 21:31:58;;;;;;;15.20;5.43;;;;;;;21.42;30.07;102884.88;16137380;19;130405;-44
2022/03/22 21:37:20;;;;;;;12.98;5.30;;;;;;;21.30;29.88;102883.81;16139728;19;129430;-51
2022/03/22 21:42:41;;;;;;;11.85;5.60;;;;;;;21.18;30.14;102886.44;16136884;19;130202;-47
2022/03/22 21:48:05;;;;;;;12.48;5.28;;;;;;;21.05;30.29;102884.50;16139197;19;129607;-46
2022/03/22 21:53:27;;;;;;;11.43;5.70;;;;;;;20.95;30.32;102896.09;16134599;19;129399;-46
2022/03/22 21:58:50;;;;;;;12.27;5.30;;;;;;;20.83;30.43;102886.66;16135076;19;130649;-47
2022/03/22 22:04:11;;;;;;;13.00;6.38;;;;;;;20.75;30.45;102890.47;16134041;19;129527;-48
2022/03/22 22:09:33;;;;;;;10.75;5.63;;;;;;;20.66;30.59;102884.25;16134692;19;129487;-45
2022/03/22 22:14:56;;;;;;;12.95;5.85;;;;;;;20.59;30.38;102878.69;16137428;19;129387;-46
2022/03/22 22:20:18;;;;;;;14.23;6.28;;;;;;;20.52;30.65;102876.97;16136436;19;128917;-50
2022/03/22 22:25:44;;;;;;;10.95;6.20;;;;;;;20.48;30.50;102889.59;16130503;19;129597;-46
2022/03/22 22:31:06;;;;;;;12.98;6.68;;;;;;;20.41;30.65;102879.31;16135624;19;130613;-49
2022/03/22 22:36:28;;;;;;;11.13;6.72;;;;;;;20.37;30.62;102885.50;16133877;19;129691;-47
2022/03/22 22:41:50;;;;;;;11.68;6.43;;;;;;;20.33;30.48;102889.75;16135470;19;130050;-45
2022/03/22 22:47:12;;;;;;;13.70;6.80;;;;;;;20.27;30.65;102877.56;16128738;19;129722;-44
2022/03/22 22:52:34;;;;;;;11.38;6.70;;;;;;;20.22;30.61;102889.31;16130491;19;129253;-44
2022/03/22 22:57:56;;;;;;;11.55;7.22;;;;;;;20.18;30.17;102884.38;16134064;19;129947;-46
2022/03/22 23:03:19;;;;;;;11.38;7.20;;;;;;;20.14;30.39;102889.50;16132536;19;129450;-45
2022/03/22 23:14:21;;;;;;;11.60;7.43;;;;;;;20.07;30.48;102885.84;16122285;19;130110;-45
2022/03/22 23:19:43;;;;;;;13.68;7.97;;;;;;;20.06;30.13;102882.22;16126178;19;129082;-46
2022/03/22 23:25:06;;;;;;;13.40;9.02;;;;;;;20.04;29.67;102877.94;16141917;19;130551;-45
2022/03/22 23:30:28;;;;;;;12.57;8.73;;;;;;;20.03;30.19;102876.22;16146093;19;129380;-44
2022/03/22 23:35:51;;;;;;;15.57;9.07;;;;;;;20.01;30.02;102878.34;16144709;19;129743;-45
2022/03/22 23:41:13;;;;;;;13.73;9.10;;;;;;;19.95;29.86;102875.28;16144739;19;129489;-47
2022/03/22 23:46:35;;;;;;;13.88;8.20;;;;;;;19.93;29.66;102871.91;16138478;19;129609;-45
2022/03/22 23:51:57;;;;;;;13.43;8.27;;;;;;;19.89;29.72;102865.03;16141994;19;129976;-50
2022/03/22 23:57:19;;;;;;;16.00;9.07;;;;;;;19.86;29.87;102873.78;16143280;19;130109;-44
